X  Fermer Données météorologiques d'aviation de Metar     LGBL Nea Anchialos National Airport
Température
73°F Température
63°F Point de rosée
69% Humidité



Vent
6 MPH
10 KM/H
3 M/S
5 KTS



140°
SE
Conditions actuelles

Partiellement nuageux Partiellement nuageux
Pression 1006.77 (hPa) - 29.73 (inHg)
Visibilité 6 (mile) - 9.7 (km)
Aéroport
Code de l'aéroport LGBL

Emplacement: Nea Anchialos National Airport
Distance: 74 (mi)

Metar:
LGBL 140050Z 14005KT 9999 FEW035 23/17 Q1007

Temps: 14-06-2024 03:50 EEST